createdAt,value
2023-04-14T00:00:36.697Z,95052.78
2023-04-14T00:03:03.663Z,95052.78
2023-04-14T00:05:31.294Z,95051.22
2023-04-14T00:07:57.976Z,95050.16
2023-04-14T00:10:25.574Z,95040.75
2023-04-14T00:12:52.181Z,95044.16
2023-04-14T00:15:18.912Z,95040.50
2023-04-14T00:17:45.489Z,95039.19
2023-04-14T00:20:12.125Z,95048.06
2023-04-14T00:22:38.672Z,95052.25
2023-04-14T00:25:05.637Z,95046.00
2023-04-14T00:27:32.134Z,95033.97
2023-04-14T00:29:58.640Z,95039.47
2023-04-14T00:32:25.232Z,95040.75
2023-04-14T00:34:51.736Z,95039.97
2023-04-14T00:37:18.246Z,95049.91
2023-04-14T00:39:44.712Z,95048.06
2023-04-14T00:42:11.611Z,95038.41
2023-04-14T00:44:38.082Z,95041.03
2023-04-14T00:47:05.537Z,95038.44
2023-04-14T00:49:32.565Z,95044.66
2023-04-14T00:51:59.466Z,95041.81
2023-04-14T00:54:26.560Z,95047.03
2023-04-14T00:56:53.986Z,95046.50
2023-04-14T00:59:20.905Z,95033.19
2023-04-14T01:01:47.935Z,95041.28
2023-04-14T01:04:15.929Z,95040.50
2023-04-14T01:06:42.442Z,95037.63
2023-04-14T01:09:09.810Z,95040.25
2023-04-14T01:12:00.339Z,95040.78
2023-04-14T01:14:44.894Z,95045.22
2023-04-14T01:17:34.701Z,95054.34
2023-04-14T01:20:14.552Z,95048.59
2023-04-14T01:22:49.196Z,95046.25
2023-04-14T01:25:51.236Z,95052.78
2023-04-14T01:28:35.647Z,95045.47
2023-04-14T01:31:22.417Z,95051.22
2023-04-14T01:34:15.351Z,95047.81
2023-04-14T01:36:50.577Z,95057.22
2023-04-14T01:39:21.233Z,95053.28
2023-04-14T01:41:52.292Z,95058.50
2023-04-14T01:44:22.332Z,95058.53
2023-04-14T01:46:51.995Z,95062.19
2023-04-14T01:49:20.887Z,95047.81
2023-04-14T01:51:49.135Z,95039.19
2023-04-14T01:54:17.963Z,95051.22
2023-04-14T01:56:46.530Z,95049.38
2023-04-14T01:59:14.390Z,95059.81
2023-04-14T02:01:42.945Z,95052.78
2023-04-14T02:04:10.061Z,95056.97
2023-04-14T02:06:39.824Z,95047.03
2023-04-14T02:09:10.402Z,95057.22
2023-04-14T02:11:38.454Z,95054.88
2023-04-14T02:14:07.837Z,95050.16
2023-04-14T02:16:36.641Z,95045.22
2023-04-14T02:19:05.558Z,95047.03
2023-04-14T02:21:35.245Z,95040.50
2023-04-14T02:24:03.366Z,95047.53
2023-04-14T02:26:36.718Z,95033.97
2023-04-14T02:29:11.367Z,95033.19
2023-04-14T02:31:44.299Z,95028.75
2023-04-14T02:34:13.451Z,95033.19
2023-04-14T02:36:48.052Z,95030.31
2023-04-14T02:39:28.072Z,95040.00
2023-04-14T02:42:02.213Z,95028.75
2023-04-14T02:44:34.112Z,95029.81
2023-04-14T02:47:09.450Z,95025.09
2023-04-14T02:49:46.765Z,95025.09
2023-04-14T02:52:17.495Z,95008.66
2023-04-14T02:54:47.937Z,95006.56
2023-04-14T02:57:15.649Z,94993.25
2023-04-14T02:59:47.194Z,95009.41
2023-04-14T03:02:16.464Z,95012.28
2023-04-14T03:04:49.576Z,95004.19
2023-04-14T03:07:26.079Z,94999.00
2023-04-14T03:09:53.221Z,94995.59
2023-04-14T03:12:22.492Z,95007.88
2023-04-14T03:14:51.143Z,95005.00
2023-04-14T03:17:20.963Z,95016.72
2023-04-14T03:19:51.080Z,95008.91
2023-04-14T03:22:19.638Z,94997.66
2023-04-14T03:24:47.236Z,94998.72
2023-04-14T03:27:18.944Z,94996.13
2023-04-14T03:29:47.838Z,94997.44
2023-04-14T03:32:17.275Z,94994.31
2023-04-14T03:34:51.682Z,94983.84
2023-04-14T03:37:24.263Z,94995.59
2023-04-14T03:39:52.874Z,94989.06
2023-04-14T03:42:24.949Z,94995.84
2023-04-14T03:44:54.189Z,94988.03
2023-04-14T03:47:24.396Z,94976.53
2023-04-14T03:49:56.945Z,94981.75
2023-04-14T03:52:24.940Z,94985.16
2023-04-14T03:54:55.365Z,94983.31
2023-04-14T03:57:23.628Z,94981.50
2023-04-14T03:59:52.715Z,94988.56
2023-04-14T04:02:25.649Z,94992.97
2023-04-14T04:04:54.493Z,95009.19
2023-04-14T04:07:21.959Z,95011.25
2023-04-14T04:09:50.638Z,95010.97
2023-04-14T04:12:20.542Z,95009.44
2023-04-14T04:14:47.107Z,95004.19
2023-04-14T04:17:17.192Z,95001.34
2023-04-14T04:19:45.473Z,95006.56
2023-04-14T04:22:17.052Z,94998.47
2023-04-14T04:24:45.548Z,95005.75
2023-04-14T04:27:27.777Z,95007.31
2023-04-14T04:30:00.041Z,94997.38
2023-04-14T04:32:27.554Z,94993.72
2023-04-14T04:34:54.636Z,94984.88
2023-04-14T04:37:21.832Z,94981.72
2023-04-14T04:39:48.842Z,94988.50
2023-04-14T04:42:16.973Z,94987.97
2023-04-14T04:44:43.578Z,94991.13
2023-04-14T04:47:11.936Z,94998.44
2023-04-14T04:49:38.502Z,95004.16
2023-04-14T04:52:05.306Z,95011.50
2023-04-14T04:54:31.785Z,95008.38
2023-04-14T04:56:58.725Z,95018.81
2023-04-14T04:59:25.876Z,95022.72
2023-04-14T05:01:52.675Z,95032.66
2023-04-14T05:04:19.318Z,95026.91
2023-04-14T05:06:45.888Z,95033.72
2023-04-14T05:09:12.336Z,95039.69
2023-04-14T05:11:38.808Z,95051.69
2023-04-14T05:14:05.378Z,95043.88
2023-04-14T05:16:32.050Z,95047.03
2023-04-14T05:18:59.016Z,95046.75
2023-04-14T05:21:25.756Z,95054.31
2023-04-14T05:23:52.216Z,95055.13
2023-04-14T05:28:47.992Z,95057.44
2023-04-14T05:31:14.488Z,95050.41
2023-04-14T05:33:41.060Z,95051.47
2023-04-14T05:36:07.923Z,95059.56
2023-04-14T05:38:39.902Z,95058.00
2023-04-14T05:41:07.292Z,95064.50
2023-04-14T05:43:34.013Z,95053.81
2023-04-14T05:46:01.532Z,95058.78
2023-04-14T05:48:30.454Z,95045.19
2023-04-14T05:50:57.817Z,95044.63
2023-04-14T05:53:24.363Z,95036.03
2023-04-14T05:55:53.939Z,95037.09
2023-04-14T05:58:20.438Z,95037.59
2023-04-14T06:00:46.999Z,95039.69
2023-04-14T06:03:13.810Z,95041.81
2023-04-14T06:05:40.521Z,95042.03
2023-04-14T06:08:06.978Z,95029.25
2023-04-14T06:10:35.488Z,95031.06
2023-04-14T06:13:01.974Z,95036.81
2023-04-14T06:15:29.619Z,95038.13
2023-04-14T06:17:56.262Z,95043.06
2023-04-14T06:20:22.829Z,95049.09
2023-04-14T06:22:49.304Z,95049.34
2023-04-14T06:25:16.365Z,95053.78
2023-04-14T06:27:43.149Z,95051.97
2023-04-14T06:30:09.998Z,95041.78
2023-04-14T06:32:36.825Z,95047.53
2023-04-14T06:35:04.847Z,95036.03
2023-04-14T06:37:32.100Z,95048.03
2023-04-14T06:39:58.541Z,95040.72
2023-04-14T06:42:25.700Z,95036.03
2023-04-14T06:44:52.280Z,95041.50
2023-04-14T06:47:19.828Z,95060.34
2023-04-14T06:49:46.415Z,95059.28
2023-04-14T06:52:12.970Z,95055.84
2023-04-14T06:54:39.451Z,95055.34
2023-04-14T06:57:05.903Z,95043.31
2023-04-14T06:59:32.361Z,95053.25
2023-04-14T07:01:59.035Z,95037.56
2023-04-14T07:04:26.093Z,95045.69
2023-04-14T07:06:52.631Z,95042.78
2023-04-14T07:09:19.560Z,95039.41
2023-04-14T07:11:46.500Z,95039.88
2023-04-14T07:14:12.960Z,95040.16
2023-04-14T07:16:39.532Z,95027.88
2023-04-14T07:19:06.071Z,95022.13
2023-04-14T07:21:32.601Z,95031.53
2023-04-14T07:23:59.298Z,95023.19
2023-04-14T07:26:25.888Z,95045.63
2023-04-14T07:28:52.699Z,95031.53
2023-04-14T07:31:19.251Z,95033.88
2023-04-14T07:33:45.839Z,95044.56
2023-04-14T07:36:12.683Z,95033.34
2023-04-14T07:38:39.226Z,95048.22
2023-04-14T07:41:07.030Z,95039.06
2023-04-14T07:43:37.038Z,95044.06
2023-04-14T07:46:05.643Z,95046.91
2023-04-14T07:48:33.539Z,95046.16
2023-04-14T07:51:00.049Z,95044.56
2023-04-14T07:53:26.609Z,95044.28
2023-04-14T07:55:53.150Z,95057.34
2023-04-14T07:58:19.827Z,95066.50
2023-04-14T08:00:46.696Z,95060.75
2023-04-14T08:03:13.856Z,95065.19
2023-04-14T08:05:42.121Z,95053.19
2023-04-14T08:08:10.115Z,95055.50
2023-04-14T08:10:38.814Z,95062.59
2023-04-14T08:13:05.383Z,95070.91
2023-04-14T08:15:32.312Z,95064.41
2023-04-14T08:17:58.922Z,95078.19
2023-04-14T08:20:25.485Z,95078.72
2023-04-14T08:22:52.426Z,95071.94
2023-04-14T08:25:18.917Z,95081.34
2023-04-14T08:27:45.667Z,95083.72
2023-04-14T08:30:12.608Z,95089.69
2023-04-14T08:32:39.237Z,95076.59
2023-04-14T08:35:39.096Z,95094.84
2023-04-14T08:37:52.860Z,95091.16
2023-04-14T08:40:21.962Z,95086.44
2023-04-14T08:42:48.456Z,95092.47
2023-04-14T08:45:15.019Z,95089.88
2023-04-14T08:47:43.442Z,95095.06
2023-04-14T08:50:15.397Z,95089.06
2023-04-14T08:52:42.811Z,95091.69
2023-04-14T08:55:11.065Z,95094.81
2023-04-14T08:57:38.350Z,95092.69
2023-04-14T09:00:05.869Z,95089.59
2023-04-14T09:02:33.608Z,95099.25
2023-04-14T09:05:01.189Z,95097.91
2023-04-14T09:07:29.880Z,95095.00
2023-04-14T09:09:57.603Z,95094.72
2023-04-14T09:12:27.238Z,95080.31
2023-04-14T09:14:54.957Z,95069.59
2023-04-14T09:17:22.074Z,95067.53
2023-04-14T09:20:34.788Z,95059.63
2023-04-14T09:22:36.251Z,95069.00
2023-04-14T09:25:03.379Z,95075.84
2023-04-14T09:27:30.022Z,95073.66
2023-04-14T09:29:57.471Z,95059.31
2023-04-14T09:32:24.024Z,95065.22
2023-04-14T09:34:56.559Z,95065.75
2023-04-14T09:37:24.782Z,95058.38
2023-04-14T09:39:52.462Z,95058.09
2023-04-14T09:42:19.146Z,95051.78
2023-04-14T09:44:56.796Z,95057.53
2023-04-14T09:47:24.714Z,95068.16
2023-04-14T09:49:57.551Z,95052.28
2023-04-14T09:52:37.189Z,95073.13
2023-04-14T09:55:14.744Z,95094.28
2023-04-14T09:57:42.793Z,95090.66
2023-04-14T10:00:15.735Z,95099.31
2023-04-14T10:02:58.059Z,95096.78
2023-04-14T10:05:29.307Z,95089.97
2023-04-14T10:08:03.530Z,95088.91
2023-04-14T10:10:30.092Z,95083.44
2023-04-14T10:12:56.593Z,95085.78
2023-04-14T10:15:23.194Z,95093.13
2023-04-14T10:17:49.986Z,95077.91
2023-04-14T10:20:17.039Z,95073.66
2023-04-14T10:22:43.713Z,95078.47
2023-04-14T10:25:10.846Z,95086.84
2023-04-14T10:27:38.866Z,95073.09
2023-04-14T10:30:08.645Z,95086.00
2023-04-14T10:32:37.449Z,95080.81
2023-04-14T10:35:05.449Z,95081.41
2023-04-14T10:37:33.112Z,95068.97
2023-04-14T10:40:01.691Z,95081.97
2023-04-14T10:42:32.862Z,95068.56
2023-04-14T10:45:07.668Z,95068.66
2023-04-14T10:47:36.150Z,95083.31
2023-04-14T10:50:14.842Z,95071.91
2023-04-14T10:52:54.221Z,95063.47
2023-04-14T10:55:25.771Z,95068.16
2023-04-14T10:57:54.520Z,95072.66
2023-04-14T11:00:25.322Z,95062.16
2023-04-14T11:03:03.248Z,95065.75
2023-04-14T11:05:34.006Z,95043.41
2023-04-14T11:08:12.896Z,95036.09
2023-04-14T11:10:39.711Z,95025.97
2023-04-14T11:13:12.665Z,95027.88
2023-04-14T11:15:48.489Z,95019.00
2023-04-14T11:18:35.706Z,94996.00
2023-04-14T11:21:11.980Z,94998.69
2023-04-14T11:23:38.881Z,95004.69
2023-04-14T11:26:08.041Z,94998.00
2023-04-14T11:28:36.380Z,94999.84
2023-04-14T11:31:06.051Z,94999.50
2023-04-14T11:33:37.894Z,94995.53
2023-04-14T11:36:07.077Z,94998.78
2023-04-14T11:38:40.182Z,95010.28
2023-04-14T11:41:07.157Z,94997.97
2023-04-14T11:43:33.771Z,94999.09
2023-04-14T11:46:00.678Z,94995.66
2023-04-14T11:48:28.928Z,94989.75
2023-04-14T11:51:01.064Z,94998.03
2023-04-14T11:53:27.594Z,94979.97
2023-04-14T11:55:54.236Z,94992.75
2023-04-14T11:58:25.808Z,94990.66
2023-04-14T12:00:56.017Z,95000.28
2023-04-14T12:03:27.789Z,95012.47
2023-04-14T12:05:59.773Z,95006.50
2023-04-14T12:08:30.056Z,95023.47
2023-04-14T12:10:57.703Z,95006.16
2023-04-14T12:13:26.335Z,95002.97
2023-04-14T12:15:54.334Z,94998.13
2023-04-14T12:18:21.568Z,94990.41
2023-04-14T12:20:53.762Z,94994.31
2023-04-14T12:23:20.512Z,94991.25
2023-04-14T12:25:50.600Z,94998.16
2023-04-14T12:28:30.424Z,94979.91
2023-04-14T12:31:01.378Z,94965.69
2023-04-14T12:33:29.107Z,94965.03
2023-04-14T12:36:07.710Z,94966.28
2023-04-14T12:38:34.453Z,94959.09
2023-04-14T12:41:01.326Z,94946.97
2023-04-14T12:43:36.798Z,94954.59
2023-04-14T12:46:04.668Z,94940.69
2023-04-14T12:48:46.024Z,94947.53
2023-04-14T12:51:17.274Z,94955.31
2023-04-14T12:53:45.346Z,94936.53
2023-04-14T12:56:27.364Z,94943.44
2023-04-14T12:58:54.342Z,94940.72
2023-04-14T13:01:21.792Z,94954.97
2023-04-14T13:03:51.738Z,94978.31
2023-04-14T13:06:20.356Z,94974.72
2023-04-14T13:08:51.453Z,94965.13
2023-04-14T13:11:19.846Z,94964.16
2023-04-14T13:13:46.534Z,94938.13
2023-04-14T13:16:18.543Z,94966.34
2023-04-14T13:18:47.787Z,94959.69
2023-04-14T13:21:14.737Z,94965.72
2023-04-14T13:23:41.595Z,94953.69
2023-04-14T13:26:08.380Z,94948.59
2023-04-14T13:28:35.191Z,94941.78
2023-04-14T13:31:01.698Z,94944.19
2023-04-14T13:33:28.192Z,94926.69
2023-04-14T13:35:55.680Z,94940.97
2023-04-14T13:38:22.414Z,94937.78
2023-04-14T13:40:49.004Z,94930.13
2023-04-14T13:43:18.043Z,94931.63
2023-04-14T13:45:44.951Z,94921.25
2023-04-14T13:48:11.588Z,94905.78
2023-04-14T13:50:38.090Z,94925.19
2023-04-14T13:53:04.652Z,94929.56
2023-04-14T13:55:31.480Z,94920.00
2023-04-14T13:57:57.952Z,94919.34
2023-04-14T14:00:24.502Z,94920.91
2023-04-14T14:02:52.071Z,94921.44
2023-04-14T14:05:18.739Z,94923.75
2023-04-14T14:07:45.513Z,94918.59
2023-04-14T14:10:12.434Z,94907.38
2023-04-14T14:12:38.941Z,94910.00
2023-04-14T14:15:06.132Z,94919.47
2023-04-14T14:17:32.754Z,94909.53
2023-04-14T14:19:59.596Z,94893.16
2023-04-14T14:22:26.382Z,94894.09
2023-04-14T14:24:58.529Z,94899.53
2023-04-14T14:27:27.582Z,94895.53
2023-04-14T14:29:54.038Z,94884.38
2023-04-14T14:32:20.869Z,94901.09
2023-04-14T14:34:47.537Z,94897.88
2023-04-14T14:37:18.219Z,94897.34
2023-04-14T14:39:44.963Z,94887.66
2023-04-14T14:42:11.434Z,94889.28
2023-04-14T14:44:38.136Z,94894.53
2023-04-14T14:47:05.329Z,94893.59
2023-04-14T14:49:32.215Z,94879.75
2023-04-14T14:51:58.753Z,94877.72
2023-04-14T14:54:25.148Z,94885.88
2023-04-14T14:56:51.580Z,94887.38
2023-04-14T14:59:18.019Z,94865.41
2023-04-14T15:01:44.630Z,94872.22
2023-04-14T15:04:12.074Z,94876.41
2023-04-14T15:06:38.579Z,94869.22
2023-04-14T15:09:05.430Z,94857.13
2023-04-14T15:11:32.141Z,94867.97
2023-04-14T15:14:00.032Z,94868.63
2023-04-14T15:16:27.523Z,94859.28
2023-04-14T15:18:54.087Z,94869.38
2023-04-14T15:21:20.502Z,94864.63
2023-04-14T15:23:47.018Z,94852.66
2023-04-14T15:26:14.109Z,94864.19
2023-04-14T15:28:41.068Z,94863.56
2023-04-14T15:31:08.337Z,94867.81
2023-04-14T15:33:34.939Z,94872.09
2023-04-14T15:36:01.633Z,94877.47
2023-04-14T15:38:28.118Z,94868.31
2023-04-14T15:40:54.553Z,94879.81
2023-04-14T15:43:21.499Z,94884.28
2023-04-14T15:45:48.025Z,94893.38
2023-04-14T15:48:14.558Z,94906.78
2023-04-14T15:50:44.757Z,94891.91
2023-04-14T15:53:12.176Z,94907.97
2023-04-14T15:55:39.787Z,94905.91
2023-04-14T15:58:06.556Z,94908.22
2023-04-14T16:00:33.347Z,94916.69
2023-04-14T16:03:01.853Z,94916.84
2023-04-14T16:05:28.747Z,94910.56
2023-04-14T16:07:55.901Z,94894.84
2023-04-14T16:10:23.225Z,94885.59
2023-04-14T16:12:50.566Z,94898.13
2023-04-14T16:15:17.473Z,94891.84
2023-04-14T16:17:44.388Z,94906.94
2023-04-14T16:20:12.618Z,94900.41
2023-04-14T16:22:39.292Z,94870.66
2023-04-14T16:25:07.037Z,94897.56
2023-04-14T16:27:34.086Z,94913.47
2023-04-14T16:30:00.669Z,94914.53
2023-04-14T16:32:27.422Z,94924.41
2023-04-14T16:34:53.991Z,94897.25
2023-04-14T16:37:21.038Z,94898.75
2023-04-14T16:39:47.574Z,94901.16
2023-04-14T16:42:18.516Z,94895.69
2023-04-14T16:44:44.959Z,94894.25
2023-04-14T16:47:11.461Z,94900.78
2023-04-14T16:49:37.918Z,94902.91
2023-04-14T16:52:04.497Z,94903.91
2023-04-14T16:54:31.688Z,94910.09
2023-04-14T16:56:58.182Z,94904.00
2023-04-14T16:59:24.647Z,94890.19
2023-04-14T17:01:51.376Z,94909.28
2023-04-14T17:04:18.283Z,94891.41
2023-04-14T17:06:46.037Z,94905.41
2023-04-14T17:09:12.810Z,94898.56
2023-04-14T17:11:39.329Z,94897.91
2023-04-14T17:14:06.503Z,94875.50
2023-04-14T17:16:33.257Z,94884.88
2023-04-14T17:18:59.890Z,94901.06
2023-04-14T17:21:26.549Z,94887.84
2023-04-14T17:23:54.456Z,94910.53
2023-04-14T17:26:21.292Z,94916.00
2023-04-14T17:28:47.727Z,94917.56
2023-04-14T17:31:14.372Z,94921.81
2023-04-14T17:33:41.902Z,94920.75
2023-04-14T17:36:09.582Z,94928.06
2023-04-14T17:38:38.496Z,94938.47
2023-04-14T17:41:06.140Z,94941.69
2023-04-14T17:43:32.626Z,94948.41
2023-04-14T17:45:59.227Z,94933.13
2023-04-14T17:48:25.775Z,94917.50
2023-04-14T17:50:52.821Z,94914.94
2023-04-14T17:53:19.687Z,94912.81
2023-04-14T17:55:46.403Z,94909.69
2023-04-14T17:58:13.279Z,94922.50
2023-04-14T18:00:40.052Z,94913.94
2023-04-14T18:03:06.636Z,94912.94
2023-04-14T18:05:33.108Z,94919.72
2023-04-14T18:07:59.589Z,94917.16
2023-04-14T18:10:26.375Z,94917.06
2023-04-14T18:12:52.813Z,94917.41
2023-04-14T18:15:19.739Z,94932.34
2023-04-14T18:17:46.623Z,94928.09
2023-04-14T18:20:14.480Z,94929.09
2023-04-14T18:22:41.292Z,94927.59
2023-04-14T18:25:09.035Z,94926.75
2023-04-14T18:30:06.204Z,94931.94
2023-04-14T18:32:33.173Z,94928.91
2023-04-14T18:34:59.781Z,94927.66
2023-04-14T18:37:26.314Z,94941.44
2023-04-14T18:39:52.721Z,94922.44
2023-04-14T18:42:19.202Z,94927.09
2023-04-14T18:44:45.641Z,94937.56
2023-04-14T18:47:12.294Z,94940.50
2023-04-14T18:49:39.614Z,94967.63
2023-04-14T18:52:06.095Z,94960.72
2023-04-14T18:54:33.660Z,94976.69
2023-04-14T18:57:00.960Z,94992.91
2023-04-14T18:59:27.628Z,94984.00
2023-04-14T19:01:54.229Z,94968.94
2023-04-14T19:04:20.833Z,94976.88
2023-04-14T19:06:50.202Z,94973.22
2023-04-14T19:09:16.659Z,94967.22
2023-04-14T19:11:45.311Z,94978.00
2023-04-14T19:14:11.943Z,94972.34
2023-04-14T19:16:38.600Z,94987.38
2023-04-14T19:19:05.198Z,94968.09
2023-04-14T19:21:31.876Z,94991.09
2023-04-14T19:23:58.469Z,94992.69
2023-04-14T19:26:25.115Z,94982.69
2023-04-14T19:28:53.372Z,94990.22
2023-04-14T19:31:21.441Z,94979.94
2023-04-14T19:33:48.990Z,94988.56
2023-04-14T19:36:17.060Z,94962.81
2023-04-14T19:38:44.129Z,94991.03
2023-04-14T19:41:10.670Z,94972.72
2023-04-14T19:43:37.754Z,94982.56
2023-04-14T19:46:09.384Z,94978.47
2023-04-14T19:48:36.402Z,94977.88
2023-04-14T19:51:04.007Z,94972.09
2023-04-14T19:53:30.630Z,94971.34
2023-04-14T19:55:58.225Z,94968.22
2023-04-14T19:58:27.538Z,94972.16
2023-04-14T20:00:56.955Z,94977.94
2023-04-14T20:03:24.269Z,94958.66
2023-04-14T20:05:55.602Z,94974.72
2023-04-14T20:08:27.113Z,94959.38
2023-04-14T20:10:54.246Z,94974.53
2023-04-14T20:13:22.607Z,94958.56
2023-04-14T20:15:49.813Z,94964.75
2023-04-14T20:18:17.827Z,94952.06
2023-04-14T20:20:45.722Z,94945.03
2023-04-14T20:23:12.361Z,94961.25
2023-04-14T20:25:39.184Z,94958.63
2023-04-14T20:28:09.133Z,94970.03
2023-04-14T20:30:35.756Z,94942.66
2023-04-14T20:33:05.708Z,94942.22
2023-04-14T20:35:36.051Z,94953.69
2023-04-14T20:38:02.702Z,94961.31
2023-04-14T20:40:30.097Z,94965.47
2023-04-14T20:42:56.735Z,94957.63
2023-04-14T20:45:23.433Z,94951.84
2023-04-14T20:47:50.253Z,94950.88
2023-04-14T20:50:18.537Z,94958.34
2023-04-14T20:52:45.355Z,94941.13
2023-04-14T20:55:13.354Z,94955.75
2023-04-14T20:57:42.949Z,94937.75
2023-04-14T21:00:15.355Z,94935.69
2023-04-14T21:02:45.484Z,94947.66
2023-04-14T21:05:12.687Z,94948.72
2023-04-14T21:07:43.643Z,94949.28
2023-04-14T21:10:11.836Z,94935.94
2023-04-14T21:12:48.387Z,94949.22
2023-04-14T21:15:48.699Z,94947.91
2023-04-14T21:18:12.148Z,94937.75
2023-04-14T21:20:38.664Z,94915.75
2023-04-14T21:23:05.103Z,94926.22
2023-04-14T21:25:32.597Z,94936.56
2023-04-14T21:27:59.844Z,94925.09
2023-04-14T21:30:26.352Z,94921.97
2023-04-14T21:32:52.825Z,94933.44
2023-04-14T21:35:19.578Z,94923.53
2023-04-14T21:37:46.400Z,94927.75
2023-04-14T21:40:13.132Z,94938.19
2023-04-14T21:42:39.647Z,94927.03
2023-04-14T21:45:07.755Z,94939.25
2023-04-14T21:47:34.380Z,94921.53
2023-04-14T21:50:01.198Z,94921.22
2023-04-14T21:52:27.811Z,94930.38
2023-04-14T21:54:54.266Z,94933.22
2023-04-14T21:57:42.787Z,94893.38
2023-04-14T22:00:13.046Z,94917.91
2023-04-14T22:02:41.391Z,94913.50
2023-04-14T22:05:08.725Z,94922.41
2023-04-14T22:07:35.555Z,94924.72
2023-04-14T22:10:03.333Z,94925.78
2023-04-14T22:12:35.787Z,94925.22
2023-04-14T22:15:04.163Z,94920.31
2023-04-14T22:17:31.171Z,94921.84
2023-04-14T22:19:57.788Z,94914.03
2023-04-14T22:22:24.388Z,94901.28
2023-04-14T22:24:51.742Z,94930.00
2023-04-14T22:27:18.293Z,94915.38
2023-04-14T22:29:44.804Z,94926.28
2023-04-14T22:32:11.774Z,94897.34
2023-04-14T22:34:38.211Z,94913.81
2023-04-14T22:37:04.756Z,94912.31
2023-04-14T22:39:31.280Z,94914.69
2023-04-14T22:41:57.708Z,94908.16
2023-04-14T22:44:24.243Z,94887.06
2023-04-14T22:46:50.839Z,94906.13
2023-04-14T22:49:17.311Z,94902.69
2023-04-14T22:51:43.766Z,94902.72
2023-04-14T22:54:10.289Z,94887.88
2023-04-14T22:56:37.201Z,94905.03
2023-04-14T22:59:03.950Z,94902.09
2023-04-14T23:01:30.950Z,94897.19
2023-04-14T23:03:57.479Z,94898.81
2023-04-14T23:06:24.610Z,94899.34
2023-04-14T23:08:51.279Z,94906.69
2023-04-14T23:11:21.088Z,94910.34
2023-04-14T23:13:48.998Z,94902.78
2023-04-14T23:16:19.666Z,94904.38
2023-04-14T23:18:52.957Z,94912.50
2023-04-14T23:21:22.108Z,94919.00
2023-04-14T23:23:51.847Z,94914.84
2023-04-14T23:26:19.621Z,94905.47
2023-04-14T23:28:46.335Z,94902.56
2023-04-14T23:31:12.882Z,94906.50
2023-04-14T23:33:40.409Z,94903.41
2023-04-14T23:36:07.722Z,94902.63
2023-04-14T23:38:34.356Z,94892.97
2023-04-14T23:41:01.379Z,94893.75
2023-04-14T23:43:29.082Z,94903.91
2023-04-14T23:45:56.107Z,94901.03
2023-04-14T23:48:22.701Z,94890.63
2023-04-14T23:50:59.980Z,94892.97
2023-04-14T23:53:36.055Z,94890.06
2023-04-14T23:56:03.921Z,94889.97
2023-04-14T23:58:30.638Z,94878.22
